ADDS TAF Board (Experimental) INFO

IDs: Format: Expanded Condensed

Updated at: 1816 UTC 01 Oct 2014

KLAS - Las Vegas/McCarran I, NV, US

Issued at 1720 UTC 01 Oct 2014
Time1756Z01/19Z01/20Z01/21Z01/22Z01/23Z02/00Z02/01Z02/02Z02/03Z02/04Z02/05Z02/06Z02/07Z
TypeOBSPRVLPRVLPRVLPRVLPRVLPRVLPRVLPRVLPRVLPRVLPRVLPRVLPRVL
VIS10>6>6>6>6>6>6>6>6>6>6>6>6>6
CIG----------------------------
CoverCLRFEWFEWFEWFEWFEWFEWSKCSKCSKCSKCSKCSKCSKC
FltCat--VFRVFRVFRVFRVFRVFRVFRVFRVFRVFRVFRVFRVFR
WX----------------------------
WDir36020202020202030303030303030
WSpd121010101010108888888
WGst--202020202020--------------
R01/19
XWnd5111111-1-1-1-1-1-1-1
XGst--222222--------------
HWnd111010101010108888888
HGst--202020202020--------------
R07/25
XWnd129999997777777
XGst--191919191919--------------
HWnd-03333334444444
HGst--777777--------------
Raw TAF
KLAS 011720Z 0118/0218 02010G20KT P6SM FEW120
  FM020100 03008KT P6SM SKC
  FM021000 35008KT P6SM SKC


Raw METAR
KLAS 011756Z 36012KT 10SM CLR 27/01 A2990 RMK AO2 SLP105 T02670006 10267 20194 51015

TAF Board Legend

Hazard VFR MVFR IFR LIFR
Visibility (sm) >5 3≤X≤5 1≤X<3 <1
Ceiling (100 ft) >30 10≤X≤30 5≤X<10 <5
Wind Speed (kt) <10 10≤X<20 20≤X<30 ≥30
Wind Gust (kt) <15 15≤X<25 25≤X<35 ≥35
Weather No Wx Reported VCTS,-TS,-FZRA TS,FZRA +TS,+FZRA


Page loaded:  18:16 UTC  |   11:16 AM Pacific  |   12:16 PM Mountain  |   01:16 PM Central  |   02:16 PM Eastern

 

ADVISORIES

FORECASTS

FORECASTS

OBSERVATIONS

USER TOOLS

ABOUT US